sensor_id;sensor_type;location;lat;lon;timestamp;temperature;humidity
67752;DHT22;54551;51.068;5.826;2023-04-03T00:00:31;3.20;99.90
67752;DHT22;54551;51.068;5.826;2023-04-03T00:02:57;3.20;99.90
67752;DHT22;54551;51.068;5.826;2023-04-03T00:05:23;3.20;99.90
67752;DHT22;54551;51.068;5.826;2023-04-03T00:07:49;3.20;99.90
67752;DHT22;54551;51.068;5.826;2023-04-03T00:10:15;3.10;99.90
67752;DHT22;54551;51.068;5.826;2023-04-03T00:12:42;3.00;99.90
67752;DHT22;54551;51.068;5.826;2023-04-03T00:15:08;3.00;99.90
67752;DHT22;54551;51.068;5.826;2023-04-03T00:17:34;3.00;99.90
67752;DHT22;54551;51.068;5.826;2023-04-03T00:20:01;3.00;99.90
67752;DHT22;54551;51.068;5.826;2023-04-03T00:22:27;2.90;99.90
67752;DHT22;54551;51.068;5.826;2023-04-03T00:24:54;2.90;99.90
67752;DHT22;54551;51.068;5.826;2023-04-03T00:27:20;2.80;99.90
67752;DHT22;54551;51.068;5.826;2023-04-03T00:29:47;2.80;99.90
67752;DHT22;54551;51.068;5.826;2023-04-03T00:32:13;2.80;99.90
67752;DHT22;54551;51.068;5.826;2023-04-03T00:34:39;2.70;99.90
67752;DHT22;54551;51.068;5.826;2023-04-03T00:37:05;2.70;99.90
67752;DHT22;54551;51.068;5.826;2023-04-03T00:39:31;2.70;99.90
67752;DHT22;54551;51.068;5.826;2023-04-03T00:41:57;2.80;99.90
67752;DHT22;54551;51.068;5.826;2023-04-03T00:46:59;2.80;99.90
67752;DHT22;54551;51.068;5.826;2023-04-03T00:49:25;2.80;99.90
67752;DHT22;54551;51.068;5.826;2023-04-03T00:51:52;2.80;99.90
67752;DHT22;54551;51.068;5.826;2023-04-03T00:54:21;2.70;99.90
67752;DHT22;54551;51.068;5.826;2023-04-03T00:56:48;2.60;99.90
67752;DHT22;54551;51.068;5.826;2023-04-03T00:59:20;2.60;99.90
67752;DHT22;54551;51.068;5.826;2023-04-03T01:01:49;2.60;99.90
67752;DHT22;54551;51.068;5.826;2023-04-03T01:04:45;2.70;99.90
67752;DHT22;54551;51.068;5.826;2023-04-03T01:07:22;2.80;99.90
67752;DHT22;54551;51.068;5.826;2023-04-03T01:09:51;2.90;99.90
67752;DHT22;54551;51.068;5.826;2023-04-03T01:14:55;2.70;99.90
67752;DHT22;54551;51.068;5.826;2023-04-03T01:17:39;2.60;99.90
67752;DHT22;54551;51.068;5.826;2023-04-03T01:25:22;2.80;99.90
67752;DHT22;54551;51.068;5.826;2023-04-03T01:27:49;2.80;99.90
67752;DHT22;54551;51.068;5.826;2023-04-03T01:30:17;2.80;99.90
67752;DHT22;54551;51.068;5.826;2023-04-03T01:32:43;2.70;99.90
67752;DHT22;54551;51.068;5.826;2023-04-03T01:35:12;2.70;99.90
67752;DHT22;54551;51.068;5.826;2023-04-03T01:37:38;2.70;99.90
67752;DHT22;54551;51.068;5.826;2023-04-03T01:40:05;2.70;99.90
67752;DHT22;54551;51.068;5.826;2023-04-03T01:42:31;2.70;99.90
67752;DHT22;54551;51.068;5.826;2023-04-03T01:44:57;2.60;99.90
67752;DHT22;54551;51.068;5.826;2023-04-03T01:47:23;2.60;99.90
67752;DHT22;54551;51.068;5.826;2023-04-03T01:49:50;2.60;99.90
67752;DHT22;54551;51.068;5.826;2023-04-03T01:52:15;2.50;99.90
67752;DHT22;54551;51.068;5.826;2023-04-03T01:54:41;2.50;99.90
67752;DHT22;54551;51.068;5.826;2023-04-03T01:57:08;2.40;99.90
67752;DHT22;54551;51.068;5.826;2023-04-03T01:59:35;2.40;99.90
67752;DHT22;54551;51.068;5.826;2023-04-03T02:02:01;2.30;99.90
67752;DHT22;54551;51.068;5.826;2023-04-03T02:04:27;2.30;99.90
67752;DHT22;54551;51.068;5.826;2023-04-03T02:06:53;2.30;99.90
67752;DHT22;54551;51.068;5.826;2023-04-03T02:09:19;2.30;99.90
67752;DHT22;54551;51.068;5.826;2023-04-03T02:11:44;2.30;99.90
67752;DHT22;54551;51.068;5.826;2023-04-03T02:14:11;2.30;99.90
67752;DHT22;54551;51.068;5.826;2023-04-03T02:16:37;2.20;99.90
67752;DHT22;54551;51.068;5.826;2023-04-03T02:19:03;2.20;99.90
67752;DHT22;54551;51.068;5.826;2023-04-03T02:21:30;2.20;99.90
67752;DHT22;54551;51.068;5.826;2023-04-03T02:23:55;2.20;99.90
67752;DHT22;54551;51.068;5.826;2023-04-03T02:26:23;2.20;99.90
67752;DHT22;54551;51.068;5.826;2023-04-03T02:28:49;2.20;99.90
67752;DHT22;54551;51.068;5.826;2023-04-03T02:31:15;2.20;99.90
67752;DHT22;54551;51.068;5.826;2023-04-03T02:33:42;2.20;99.90
67752;DHT22;54551;51.068;5.826;2023-04-03T02:36:10;2.10;99.90
67752;DHT22;54551;51.068;5.826;2023-04-03T02:38:39;2.20;99.90
67752;DHT22;54551;51.068;5.826;2023-04-03T02:41:10;2.10;99.90
67752;DHT22;54551;51.068;5.826;2023-04-03T02:43:37;2.10;99.90
67752;DHT22;54551;51.068;5.826;2023-04-03T02:46:04;2.10;99.90
67752;DHT22;54551;51.068;5.826;2023-04-03T02:48:32;2.00;99.90
67752;DHT22;54551;51.068;5.826;2023-04-03T02:50:58;2.10;99.90
67752;DHT22;54551;51.068;5.826;2023-04-03T02:53:24;2.00;99.90
67752;DHT22;54551;51.068;5.826;2023-04-03T02:55:51;2.00;99.90
67752;DHT22;54551;51.068;5.826;2023-04-03T02:58:17;2.00;99.90
67752;DHT22;54551;51.068;5.826;2023-04-03T03:00:43;2.10;99.90
67752;DHT22;54551;51.068;5.826;2023-04-03T03:03:09;2.10;99.90
67752;DHT22;54551;51.068;5.826;2023-04-03T03:05:35;2.20;99.90
67752;DHT22;54551;51.068;5.826;2023-04-03T03:08:01;2.20;99.90
67752;DHT22;54551;51.068;5.826;2023-04-03T03:10:27;2.20;99.90
67752;DHT22;54551;51.068;5.826;2023-04-03T03:12:53;2.20;99.90
67752;DHT22;54551;51.068;5.826;2023-04-03T03:15:19;2.20;99.90
67752;DHT22;54551;51.068;5.826;2023-04-03T03:17:45;2.20;99.90
67752;DHT22;54551;51.068;5.826;2023-04-03T03:20:12;2.20;99.90
67752;DHT22;54551;51.068;5.826;2023-04-03T03:22:40;2.20;99.90
67752;DHT22;54551;51.068;5.826;2023-04-03T03:25:06;2.20;99.90
67752;DHT22;54551;51.068;5.826;2023-04-03T03:27:32;2.10;99.90
67752;DHT22;54551;51.068;5.826;2023-04-03T03:29:58;2.10;99.90
67752;DHT22;54551;51.068;5.826;2023-04-03T03:32:25;2.10;99.90
67752;DHT22;54551;51.068;5.826;2023-04-03T03:34:50;2.10;99.90
67752;DHT22;54551;51.068;5.826;2023-04-03T03:37:16;2.00;99.90
67752;DHT22;54551;51.068;5.826;2023-04-03T03:39:42;2.00;99.90
67752;DHT22;54551;51.068;5.826;2023-04-03T03:42:08;2.00;99.90
67752;DHT22;54551;51.068;5.826;2023-04-03T03:44:34;2.10;99.90
67752;DHT22;54551;51.068;5.826;2023-04-03T03:47:01;2.10;99.90
67752;DHT22;54551;51.068;5.826;2023-04-03T03:49:28;2.10;99.90
67752;DHT22;54551;51.068;5.826;2023-04-03T03:51:54;2.10;99.90
67752;DHT22;54551;51.068;5.826;2023-04-03T03:54:21;2.10;99.90
67752;DHT22;54551;51.068;5.826;2023-04-03T03:56:48;2.10;99.90
67752;DHT22;54551;51.068;5.826;2023-04-03T03:59:14;2.10;99.90
67752;DHT22;54551;51.068;5.826;2023-04-03T04:01:40;2.10;99.90
67752;DHT22;54551;51.068;5.826;2023-04-03T04:04:07;2.10;99.90
67752;DHT22;54551;51.068;5.826;2023-04-03T04:06:33;2.10;99.90
67752;DHT22;54551;51.068;5.826;2023-04-03T04:09:03;2.10;99.90
67752;DHT22;54551;51.068;5.826;2023-04-03T04:11:30;2.00;99.90
67752;DHT22;54551;51.068;5.826;2023-04-03T04:13:56;1.90;99.90
67752;DHT22;54551;51.068;5.826;2023-04-03T04:16:25;1.90;99.90
67752;DHT22;54551;51.068;5.826;2023-04-03T04:18:52;1.90;99.90
67752;DHT22;54551;51.068;5.826;2023-04-03T04:21:19;1.80;99.90
67752;DHT22;54551;51.068;5.826;2023-04-03T04:23:45;1.80;99.90
67752;DHT22;54551;51.068;5.826;2023-04-03T04:26:12;1.80;99.90
67752;DHT22;54551;51.068;5.826;2023-04-03T04:28:39;1.80;99.90
67752;DHT22;54551;51.068;5.826;2023-04-03T04:31:06;1.80;99.90
67752;DHT22;54551;51.068;5.826;2023-04-03T04:33:32;1.80;99.90
67752;DHT22;54551;51.068;5.826;2023-04-03T04:36:01;1.80;99.90
67752;DHT22;54551;51.068;5.826;2023-04-03T04:38:28;1.80;99.90
67752;DHT22;54551;51.068;5.826;2023-04-03T04:40:54;1.80;99.90
67752;DHT22;54551;51.068;5.826;2023-04-03T04:43:20;1.80;99.90
67752;DHT22;54551;51.068;5.826;2023-04-03T04:46:03;1.80;99.90
67752;DHT22;54551;51.068;5.826;2023-04-03T04:48:34;1.80;99.90
67752;DHT22;54551;51.068;5.826;2023-04-03T04:51:01;1.60;99.90
67752;DHT22;54551;51.068;5.826;2023-04-03T04:53:28;1.80;99.90
67752;DHT22;54551;51.068;5.826;2023-04-03T04:55:54;1.80;99.90
67752;DHT22;54551;51.068;5.826;2023-04-03T04:58:21;1.80;99.90
67752;DHT22;54551;51.068;5.826;2023-04-03T05:00:47;1.90;99.90
67752;DHT22;54551;51.068;5.826;2023-04-03T05:03:13;1.80;99.90
67752;DHT22;54551;51.068;5.826;2023-04-03T05:05:39;1.80;99.90
67752;DHT22;54551;51.068;5.826;2023-04-03T05:08:06;1.80;99.90
67752;DHT22;54551;51.068;5.826;2023-04-03T05:10:34;1.80;99.90
67752;DHT22;54551;51.068;5.826;2023-04-03T05:13:00;1.70;99.90
67752;DHT22;54551;51.068;5.826;2023-04-03T05:15:26;1.70;99.90
67752;DHT22;54551;51.068;5.826;2023-04-03T05:17:52;1.80;99.90
67752;DHT22;54551;51.068;5.826;2023-04-03T05:20:18;1.80;99.90
67752;DHT22;54551;51.068;5.826;2023-04-03T05:22:46;2.00;99.90
67752;DHT22;54551;51.068;5.826;2023-04-03T05:25:12;2.00;99.90
67752;DHT22;54551;51.068;5.826;2023-04-03T05:27:41;2.10;99.90
67752;DHT22;54551;51.068;5.826;2023-04-03T05:30:08;2.20;99.90
67752;DHT22;54551;51.068;5.826;2023-04-03T05:32:35;2.50;99.90
67752;DHT22;54551;51.068;5.826;2023-04-03T05:35:16;2.90;99.90
67752;DHT22;54551;51.068;5.826;2023-04-03T05:37:43;3.30;99.90
67752;DHT22;54551;51.068;5.826;2023-04-03T05:40:10;3.80;99.90
67752;DHT22;54551;51.068;5.826;2023-04-03T05:42:40;4.10;99.90
67752;DHT22;54551;51.068;5.826;2023-04-03T05:45:06;4.60;99.90
67752;DHT22;54551;51.068;5.826;2023-04-03T05:47:33;5.00;99.90
67752;DHT22;54551;51.068;5.826;2023-04-03T05:49:59;5.50;99.90
67752;DHT22;54551;51.068;5.826;2023-04-03T05:52:26;6.10;99.90
67752;DHT22;54551;51.068;5.826;2023-04-03T05:54:53;6.60;99.90
67752;DHT22;54551;51.068;5.826;2023-04-03T05:57:24;7.00;99.90
67752;DHT22;54551;51.068;5.826;2023-04-03T05:59:50;7.40;99.90
67752;DHT22;54551;51.068;5.826;2023-04-03T06:02:19;7.70;99.90
67752;DHT22;54551;51.068;5.826;2023-04-03T06:04:46;7.20;99.90
67752;DHT22;54551;51.068;5.826;2023-04-03T06:07:20;6.90;99.90
67752;DHT22;54551;51.068;5.826;2023-04-03T06:09:50;7.00;99.90
67752;DHT22;54551;51.068;5.826;2023-04-03T06:12:17;6.60;99.90
67752;DHT22;54551;51.068;5.826;2023-04-03T06:14:43;6.40;99.90
67752;DHT22;54551;51.068;5.826;2023-04-03T06:17:10;5.90;99.90
67752;DHT22;54551;51.068;5.826;2023-04-03T06:19:37;5.60;99.90
67752;DHT22;54551;51.068;5.826;2023-04-03T06:22:04;5.40;99.90
67752;DHT22;54551;51.068;5.826;2023-04-03T06:24:30;4.90;99.90
67752;DHT22;54551;51.068;5.826;2023-04-03T06:26:56;5.00;99.90
67752;DHT22;54551;51.068;5.826;2023-04-03T06:29:22;4.40;99.90
67752;DHT22;54551;51.068;5.826;2023-04-03T06:31:49;4.30;99.90
67752;DHT22;54551;51.068;5.826;2023-04-03T06:34:15;4.10;99.90
67752;DHT22;54551;51.068;5.826;2023-04-03T06:36:42;4.10;99.90
67752;DHT22;54551;51.068;5.826;2023-04-03T06:39:19;4.10;99.90
67752;DHT22;54551;51.068;5.826;2023-04-03T06:41:49;4.40;99.90
67752;DHT22;54551;51.068;5.826;2023-04-03T06:44:17;4.50;99.90
67752;DHT22;54551;51.068;5.826;2023-04-03T06:46:44;4.20;99.90
67752;DHT22;54551;51.068;5.826;2023-04-03T06:49:12;4.10;99.90
67752;DHT22;54551;51.068;5.826;2023-04-03T06:51:38;3.90;99.90
67752;DHT22;54551;51.068;5.826;2023-04-03T06:54:05;3.60;99.90
67752;DHT22;54551;51.068;5.826;2023-04-03T06:56:31;3.80;99.90
67752;DHT22;54551;51.068;5.826;2023-04-03T06:58:57;3.40;99.90
67752;DHT22;54551;51.068;5.826;2023-04-03T07:01:25;3.50;99.90
67752;DHT22;54551;51.068;5.826;2023-04-03T07:03:53;3.50;99.90
67752;DHT22;54551;51.068;5.826;2023-04-03T07:06:20;3.40;99.90
67752;DHT22;54551;51.068;5.826;2023-04-03T07:08:46;3.40;99.90
67752;DHT22;54551;51.068;5.826;2023-04-03T07:11:14;3.60;99.90
67752;DHT22;54551;51.068;5.826;2023-04-03T07:13:40;3.50;99.90
67752;DHT22;54551;51.068;5.826;2023-04-03T07:16:07;3.50;99.90
67752;DHT22;54551;51.068;5.826;2023-04-03T07:18:34;3.90;99.90
67752;DHT22;54551;51.068;5.826;2023-04-03T07:21:00;4.10;99.90
67752;DHT22;54551;51.068;5.826;2023-04-03T07:23:26;4.50;99.90
67752;DHT22;54551;51.068;5.826;2023-04-03T07:25:53;5.00;99.90
67752;DHT22;54551;51.068;5.826;2023-04-03T07:28:20;5.50;99.90
67752;DHT22;54551;51.068;5.826;2023-04-03T07:30:52;6.00;99.90
67752;DHT22;54551;51.068;5.826;2023-04-03T07:33:20;6.10;99.90
67752;DHT22;54551;51.068;5.826;2023-04-03T07:35:47;6.00;99.90
67752;DHT22;54551;51.068;5.826;2023-04-03T07:38:13;6.30;99.90
67752;DHT22;54551;51.068;5.826;2023-04-03T07:40:39;6.40;99.90
67752;DHT22;54551;51.068;5.826;2023-04-03T07:43:06;7.00;99.90
67752;DHT22;54551;51.068;5.826;2023-04-03T07:45:34;7.10;99.90
67752;DHT22;54551;51.068;5.826;2023-04-03T07:48:00;7.50;99.90
67752;DHT22;54551;51.068;5.826;2023-04-03T07:50:27;7.10;99.90
67752;DHT22;54551;51.068;5.826;2023-04-03T07:52:53;7.50;99.90
67752;DHT22;54551;51.068;5.826;2023-04-03T07:55:22;7.50;99.90
67752;DHT22;54551;51.068;5.826;2023-04-03T07:57:48;7.60;99.90
67752;DHT22;54551;51.068;5.826;2023-04-03T08:00:14;8.00;99.90
67752;DHT22;54551;51.068;5.826;2023-04-03T08:02:40;7.70;99.90
67752;DHT22;54551;51.068;5.826;2023-04-03T08:05:06;8.00;99.90
67752;DHT22;54551;51.068;5.826;2023-04-03T08:07:32;8.20;99.90
67752;DHT22;54551;51.068;5.826;2023-04-03T08:09:58;7.70;99.90
67752;DHT22;54551;51.068;5.826;2023-04-03T08:12:25;7.90;99.90
67752;DHT22;54551;51.068;5.826;2023-04-03T08:14:50;8.60;99.90
67752;DHT22;54551;51.068;5.826;2023-04-03T08:17:16;8.90;99.90
67752;DHT22;54551;51.068;5.826;2023-04-03T08:19:42;8.10;99.90
67752;DHT22;54551;51.068;5.826;2023-04-03T08:22:08;8.00;99.90
67752;DHT22;54551;51.068;5.826;2023-04-03T08:24:34;8.30;99.90
67752;DHT22;54551;51.068;5.826;2023-04-03T08:27:01;8.20;99.90
67752;DHT22;54551;51.068;5.826;2023-04-03T08:29:27;8.20;99.90
67752;DHT22;54551;51.068;5.826;2023-04-03T08:31:53;8.40;99.90
67752;DHT22;54551;51.068;5.826;2023-04-03T08:34:19;9.20;99.90
67752;DHT22;54551;51.068;5.826;2023-04-03T08:36:46;9.10;99.90
67752;DHT22;54551;51.068;5.826;2023-04-03T08:39:12;9.50;99.90
67752;DHT22;54551;51.068;5.826;2023-04-03T08:41:40;10.30;99.90
67752;DHT22;54551;51.068;5.826;2023-04-03T08:44:41;10.70;99.90
67752;DHT22;54551;51.068;5.826;2023-04-03T08:49:41;9.10;99.90
67752;DHT22;54551;51.068;5.826;2023-04-03T08:52:18;9.60;99.90
67752;DHT22;54551;51.068;5.826;2023-04-03T08:54:52;10.00;99.90
67752;DHT22;54551;51.068;5.826;2023-04-03T08:57:34;9.10;99.90
67752;DHT22;54551;51.068;5.826;2023-04-03T09:00:06;8.90;99.90
67752;DHT22;54551;51.068;5.826;2023-04-03T09:02:48;9.10;99.90
67752;DHT22;54551;51.068;5.826;2023-04-03T09:05:20;8.50;99.90
67752;DHT22;54551;51.068;5.826;2023-04-03T09:08:12;8.60;99.90
67752;DHT22;54551;51.068;5.826;2023-04-03T09:10:40;8.70;99.90
67752;DHT22;54551;51.068;5.826;2023-04-03T09:13:36;8.70;99.90
67752;DHT22;54551;51.068;5.826;2023-04-03T09:17:02;8.80;99.90
67752;DHT22;54551;51.068;5.826;2023-04-03T09:21:41;9.00;99.90
67752;DHT22;54551;51.068;5.826;2023-04-03T09:24:12;9.70;99.90
67752;DHT22;54551;51.068;5.826;2023-04-03T09:26:46;9.80;99.90
67752;DHT22;54551;51.068;5.826;2023-04-03T09:29:22;9.20;99.90
67752;DHT22;54551;51.068;5.826;2023-04-03T09:31:50;9.50;99.90
67752;DHT22;54551;51.068;5.826;2023-04-03T09:34:28;10.00;99.90
67752;DHT22;54551;51.068;5.826;2023-04-03T09:36:58;9.60;99.90
67752;DHT22;54551;51.068;5.826;2023-04-03T09:39:28;9.60;99.90
67752;DHT22;54551;51.068;5.826;2023-04-03T09:42:16;9.80;99.90
67752;DHT22;54551;51.068;5.826;2023-04-03T09:44:56;10.00;99.90
67752;DHT22;54551;51.068;5.826;2023-04-03T09:47:31;10.10;99.90
67752;DHT22;54551;51.068;5.826;2023-04-03T09:52:41;9.70;99.90
67752;DHT22;54551;51.068;5.826;2023-04-03T09:55:20;9.30;99.90
67752;DHT22;54551;51.068;5.826;2023-04-03T09:57:53;8.90;99.90
67752;DHT22;54551;51.068;5.826;2023-04-03T10:00:23;9.70;99.90
67752;DHT22;54551;51.068;5.826;2023-04-03T10:02:55;9.50;99.90
67752;DHT22;54551;51.068;5.826;2023-04-03T10:05:38;9.30;99.90
67752;DHT22;54551;51.068;5.826;2023-04-03T10:10:41;9.40;99.90
67752;DHT22;54551;51.068;5.826;2023-04-03T10:13:16;9.90;99.90
67752;DHT22;54551;51.068;5.826;2023-04-03T10:15:55;9.50;99.90
67752;DHT22;54551;51.068;5.826;2023-04-03T10:18:39;9.50;99.90
67752;DHT22;54551;51.068;5.826;2023-04-03T10:21:27;10.00;99.90
67752;DHT22;54551;51.068;5.826;2023-04-03T10:26:41;10.00;99.90
67752;DHT22;54551;51.068;5.826;2023-04-03T10:29:25;10.00;99.90
67752;DHT22;54551;51.068;5.826;2023-04-03T10:43:06;9.80;99.90
67752;DHT22;54551;51.068;5.826;2023-04-03T10:45:55;9.80;99.90
67752;DHT22;54551;51.068;5.826;2023-04-03T10:54:08;9.80;99.90
67752;DHT22;54551;51.068;5.826;2023-04-03T10:56:47;10.00;99.90
67752;DHT22;54551;51.068;5.826;2023-04-03T11:01:46;9.60;99.90
67752;DHT22;54551;51.068;5.826;2023-04-03T11:04:16;10.10;99.90
67752;DHT22;54551;51.068;5.826;2023-04-03T11:06:44;10.90;99.90
67752;DHT22;54551;51.068;5.826;2023-04-03T11:09:32;10.70;99.90
67752;DHT22;54551;51.068;5.826;2023-04-03T11:14:40;10.50;99.90
67752;DHT22;54551;51.068;5.826;2023-04-03T11:17:22;9.70;99.90
67752;DHT22;54551;51.068;5.826;2023-04-03T11:27:47;9.80;99.90
67752;DHT22;54551;51.068;5.826;2023-04-03T11:30:25;10.00;99.90
67752;DHT22;54551;51.068;5.826;2023-04-03T11:33:23;10.70;99.90
67752;DHT22;54551;51.068;5.826;2023-04-03T11:35:57;10.50;99.90
67752;DHT22;54551;51.068;5.826;2023-04-03T11:38:28;10.60;99.90
67752;DHT22;54551;51.068;5.826;2023-04-03T11:40:57;9.90;99.90
67752;DHT22;54551;51.068;5.826;2023-04-03T11:46:08;10.70;99.90
67752;DHT22;54551;51.068;5.826;2023-04-03T11:51:03;10.10;99.90
67752;DHT22;54551;51.068;5.826;2023-04-03T11:53:47;10.10;99.90
67752;DHT22;54551;51.068;5.826;2023-04-03T12:01:53;10.20;99.90
67752;DHT22;54551;51.068;5.826;2023-04-03T12:04:21;9.90;99.90
67752;DHT22;54551;51.068;5.826;2023-04-03T12:11:49;10.30;99.90
67752;DHT22;54551;51.068;5.826;2023-04-03T12:14:16;10.30;99.90
67752;DHT22;54551;51.068;5.826;2023-04-03T12:16:45;9.90;99.90
67752;DHT22;54551;51.068;5.826;2023-04-03T12:29:43;10.20;99.90
67752;DHT22;54551;51.068;5.826;2023-04-03T12:40:24;10.60;99.90
67752;DHT22;54551;51.068;5.826;2023-04-03T12:45:45;10.60;99.90
67752;DHT22;54551;51.068;5.826;2023-04-03T12:48:18;10.30;99.90
67752;DHT22;54551;51.068;5.826;2023-04-03T12:50:49;10.60;99.90
67752;DHT22;54551;51.068;5.826;2023-04-03T12:53:19;9.90;99.90
67752;DHT22;54551;51.068;5.826;2023-04-03T12:55:46;10.60;99.90
67752;DHT22;54551;51.068;5.826;2023-04-03T12:58:25;10.50;99.90
67752;DHT22;54551;51.068;5.826;2023-04-03T13:01:03;10.00;99.90
67752;DHT22;54551;51.068;5.826;2023-04-03T13:03:30;10.00;99.90
67752;DHT22;54551;51.068;5.826;2023-04-03T13:05:59;10.90;99.90
67752;DHT22;54551;51.068;5.826;2023-04-03T13:08:26;11.30;99.90
67752;DHT22;54551;51.068;5.826;2023-04-03T13:11:02;11.70;99.90
67752;DHT22;54551;51.068;5.826;2023-04-03T13:13:29;10.70;99.90
67752;DHT22;54551;51.068;5.826;2023-04-03T13:15:55;10.40;99.90
67752;DHT22;54551;51.068;5.826;2023-04-03T13:18:33;10.80;99.90
67752;DHT22;54551;51.068;5.826;2023-04-03T13:23:29;10.60;99.90
67752;DHT22;54551;51.068;5.826;2023-04-03T13:25:57;10.60;99.90
67752;DHT22;54551;51.068;5.826;2023-04-03T13:28:27;9.90;99.90
67752;DHT22;54551;51.068;5.826;2023-04-03T13:31:03;10.20;99.90
67752;DHT22;54551;51.068;5.826;2023-04-03T13:33:33;10.40;99.90
67752;DHT22;54551;51.068;5.826;2023-04-03T13:36:21;10.40;99.90
67752;DHT22;54551;51.068;5.826;2023-04-03T13:39:20;10.70;99.90
67752;DHT22;54551;51.068;5.826;2023-04-03T13:41:52;10.70;99.90
67752;DHT22;54551;51.068;5.826;2023-04-03T13:46:52;10.20;99.90
67752;DHT22;54551;51.068;5.826;2023-04-03T13:51:56;10.00;99.90
67752;DHT22;54551;51.068;5.826;2023-04-03T13:54:29;10.40;99.90
67752;DHT22;54551;51.068;5.826;2023-04-03T13:56:57;10.30;99.90
67752;DHT22;54551;51.068;5.826;2023-04-03T13:59:28;10.30;99.90
67752;DHT22;54551;51.068;5.826;2023-04-03T14:04:31;10.40;99.90
67752;DHT22;54551;51.068;5.826;2023-04-03T14:06:58;10.50;99.90
67752;DHT22;54551;51.068;5.826;2023-04-03T14:09:26;10.60;99.90
67752;DHT22;54551;51.068;5.826;2023-04-03T14:12:05;10.50;99.90
67752;DHT22;54551;51.068;5.826;2023-04-03T14:14:34;10.90;99.90
67752;DHT22;54551;51.068;5.826;2023-04-03T14:17:03;10.40;99.90
67752;DHT22;54551;51.068;5.826;2023-04-03T14:19:36;10.30;99.90
67752;DHT22;54551;51.068;5.826;2023-04-03T14:22:18;10.90;99.90
67752;DHT22;54551;51.068;5.826;2023-04-03T14:24:45;11.10;99.90
67752;DHT22;54551;51.068;5.826;2023-04-03T14:29:47;11.20;99.90
67752;DHT22;54551;51.068;5.826;2023-04-03T14:32:14;11.30;99.90
67752;DHT22;54551;51.068;5.826;2023-04-03T14:34:41;10.40;99.90
67752;DHT22;54551;51.068;5.826;2023-04-03T14:37:14;10.30;99.90
67752;DHT22;54551;51.068;5.826;2023-04-03T14:39:41;10.20;99.90
67752;DHT22;54551;51.068;5.826;2023-04-03T14:42:12;10.40;99.90
67752;DHT22;54551;51.068;5.826;2023-04-03T14:44:38;10.50;99.90
67752;DHT22;54551;51.068;5.826;2023-04-03T14:47:04;10.30;99.90
67752;DHT22;54551;51.068;5.826;2023-04-03T14:49:30;10.30;99.90
67752;DHT22;54551;51.068;5.826;2023-04-03T14:51:57;10.10;99.90
67752;DHT22;54551;51.068;5.826;2023-04-03T14:54:24;10.00;99.90
67752;DHT22;54551;51.068;5.826;2023-04-03T14:56:55;9.90;99.90
67752;DHT22;54551;51.068;5.826;2023-04-03T14:59:22;10.10;99.90
67752;DHT22;54551;51.068;5.826;2023-04-03T15:01:48;10.40;99.90
67752;DHT22;54551;51.068;5.826;2023-04-03T15:04:19;10.40;99.90
67752;DHT22;54551;51.068;5.826;2023-04-03T15:06:46;10.20;99.90
67752;DHT22;54551;51.068;5.826;2023-04-03T15:11:46;9.70;99.90
67752;DHT22;54551;51.068;5.826;2023-04-03T15:14:12;9.70;99.90
67752;DHT22;54551;51.068;5.826;2023-04-03T15:16:38;9.50;99.90
67752;DHT22;54551;51.068;5.826;2023-04-03T15:19:05;9.80;99.90
67752;DHT22;54551;51.068;5.826;2023-04-03T15:21:31;9.60;99.90
67752;DHT22;54551;51.068;5.826;2023-04-03T15:23:57;9.70;99.90
67752;DHT22;54551;51.068;5.826;2023-04-03T15:26:22;9.60;99.90
67752;DHT22;54551;51.068;5.826;2023-04-03T15:28:49;9.70;99.90
67752;DHT22;54551;51.068;5.826;2023-04-03T15:31:15;9.50;99.90
67752;DHT22;54551;51.068;5.826;2023-04-03T15:33:41;9.50;99.90
67752;DHT22;54551;51.068;5.826;2023-04-03T15:36:07;9.40;99.90
67752;DHT22;54551;51.068;5.826;2023-04-03T15:38:33;9.60;99.90
67752;DHT22;54551;51.068;5.826;2023-04-03T15:40:59;9.70;99.90
67752;DHT22;54551;51.068;5.826;2023-04-03T15:43:25;9.40;99.90
67752;DHT22;54551;51.068;5.826;2023-04-03T15:45:51;9.50;99.90
67752;DHT22;54551;51.068;5.826;2023-04-03T15:48:18;9.70;99.90
67752;DHT22;54551;51.068;5.826;2023-04-03T15:50:44;9.50;99.90
67752;DHT22;54551;51.068;5.826;2023-04-03T15:53:10;9.50;99.90
67752;DHT22;54551;51.068;5.826;2023-04-03T15:55:37;9.60;99.90
67752;DHT22;54551;51.068;5.826;2023-04-03T15:58:05;9.50;99.90
67752;DHT22;54551;51.068;5.826;2023-04-03T16:00:31;9.40;99.90
67752;DHT22;54551;51.068;5.826;2023-04-03T16:03:21;9.50;99.90
67752;DHT22;54551;51.068;5.826;2023-04-03T16:05:47;9.30;99.90
67752;DHT22;54551;51.068;5.826;2023-04-03T16:08:14;9.40;99.90
67752;DHT22;54551;51.068;5.826;2023-04-03T16:10:40;9.30;99.90
67752;DHT22;54551;51.068;5.826;2023-04-03T16:13:06;9.30;99.90
67752;DHT22;54551;51.068;5.826;2023-04-03T16:15:33;9.30;99.90
67752;DHT22;54551;51.068;5.826;2023-04-03T16:18:00;9.10;99.90
67752;DHT22;54551;51.068;5.826;2023-04-03T16:20:26;9.10;99.90
67752;DHT22;54551;51.068;5.826;2023-04-03T16:22:52;9.00;99.90
67752;DHT22;54551;51.068;5.826;2023-04-03T16:25:19;8.90;99.90
67752;DHT22;54551;51.068;5.826;2023-04-03T16:27:46;8.90;99.90
67752;DHT22;54551;51.068;5.826;2023-04-03T16:30:12;9.00;99.90
67752;DHT22;54551;51.068;5.826;2023-04-03T16:32:38;8.90;99.90
67752;DHT22;54551;51.068;5.826;2023-04-03T16:35:05;8.90;99.90
67752;DHT22;54551;51.068;5.826;2023-04-03T16:37:32;8.90;99.90
67752;DHT22;54551;51.068;5.826;2023-04-03T16:39:58;9.00;99.90
67752;DHT22;54551;51.068;5.826;2023-04-03T16:42:24;8.90;99.90
67752;DHT22;54551;51.068;5.826;2023-04-03T16:44:51;8.70;99.90
67752;DHT22;54551;51.068;5.826;2023-04-03T16:47:16;8.80;99.90
67752;DHT22;54551;51.068;5.826;2023-04-03T16:49:45;8.70;99.90
67752;DHT22;54551;51.068;5.826;2023-04-03T16:52:11;8.70;99.90
67752;DHT22;54551;51.068;5.826;2023-04-03T16:54:38;8.70;99.90
67752;DHT22;54551;51.068;5.826;2023-04-03T16:57:04;8.80;99.90
67752;DHT22;54551;51.068;5.826;2023-04-03T16:59:30;8.70;99.90
67752;DHT22;54551;51.068;5.826;2023-04-03T17:01:56;8.70;99.90
67752;DHT22;54551;51.068;5.826;2023-04-03T17:04:22;8.70;99.90
67752;DHT22;54551;51.068;5.826;2023-04-03T17:06:48;8.70;99.90
67752;DHT22;54551;51.068;5.826;2023-04-03T17:09:14;8.70;99.90
67752;DHT22;54551;51.068;5.826;2023-04-03T17:11:40;8.60;99.90
67752;DHT22;54551;51.068;5.826;2023-04-03T17:14:06;8.60;99.90
67752;DHT22;54551;51.068;5.826;2023-04-03T17:16:34;8.40;99.90
67752;DHT22;54551;51.068;5.826;2023-04-03T17:19:01;8.40;99.90
67752;DHT22;54551;51.068;5.826;2023-04-03T17:21:27;8.40;99.90
67752;DHT22;54551;51.068;5.826;2023-04-03T17:24:00;8.30;99.90
67752;DHT22;54551;51.068;5.826;2023-04-03T17:26:27;8.40;99.90
67752;DHT22;54551;51.068;5.826;2023-04-03T17:28:53;8.30;99.90
67752;DHT22;54551;51.068;5.826;2023-04-03T17:31:19;8.20;99.90
67752;DHT22;54551;51.068;5.826;2023-04-03T17:33:45;8.10;99.90
67752;DHT22;54551;51.068;5.826;2023-04-03T17:36:11;8.00;99.90
67752;DHT22;54551;51.068;5.826;2023-04-03T17:38:37;8.00;99.90